Time,TemperatureF,DewpointF,PressureIn,WindDirection,WindDirectionDegrees,WindSpeedMPH,WindSpeedGustMPH,Humidity,HourlyPrecipIn,Conditions,Clouds,dailyrainin,SoftwareType,DateUTC
2015-07-02 00:02:00,48.0,47.0,-100.00,North,-9999,0.0,2.0,96,-99.99,,,-99.99,,2015-07-02 05:02:00,
2015-07-02 00:24:00,48.0,47.0,-100.00,North,-9999,0.0,2.0,96,-99.99,,,-99.99,,2015-07-02 05:24:00,
2015-07-02 00:33:00,48.0,47.0,-100.00,North,-9999,0.0,2.0,96,-99.99,,,-99.99,,2015-07-02 05:33:00,
2015-07-02 00:44:00,48.0,47.0,-100.00,North,-9999,0.0,2.0,96,-99.99,,,-99.99,,2015-07-02 05:44:00,
2015-07-02 00:53:00,48.0,47.0,-100.00,North,-9999,0.0,2.0,96,-99.99,,,-99.99,,2015-07-02 05:53:00,
2015-07-02 01:02:00,47.0,44.0,-100.00,North,-9999,0.0,2.0,90,-99.99,,,-99.99,,2015-07-02 06:02:00,
2015-07-02 01:23:00,47.0,44.0,-100.00,North,-9999,0.0,2.0,90,-99.99,,,-99.99,,2015-07-02 06:23:00,
2015-07-02 01:33:00,47.0,44.0,-100.00,North,-9999,0.0,2.0,90,-99.99,,,-99.99,,2015-07-02 06:33:00,
2015-07-02 01:44:00,47.0,44.0,-100.00,North,-9999,0.0,2.0,90,-99.99,,,-99.99,,2015-07-02 06:44:00,
2015-07-02 01:54:00,47.0,44.0,-100.00,North,-9999,0.0,2.0,90,-99.99,,,-99.99,,2015-07-02 06:54:00,
2015-07-02 02:02:00,46.0,45.0,-100.00,North,-9999,0.0,2.0,96,-99.99,,,-99.99,,2015-07-02 07:02:00,
2015-07-02 02:23:00,46.0,45.0,-100.00,North,-9999,0.0,2.0,96,-99.99,,,-99.99,,2015-07-02 07:23:00,
2015-07-02 02:33:00,46.0,45.0,-100.00,North,-9999,0.0,2.0,96,-99.99,,,-99.99,,2015-07-02 07:33:00,
2015-07-02 02:43:00,46.0,45.0,-100.00,North,-9999,0.0,2.0,96,-99.99,,,-99.99,,2015-07-02 07:43:00,
2015-07-02 02:53:00,46.0,45.0,-100.00,North,-9999,0.0,2.0,96,-99.99,,,-99.99,,2015-07-02 07:53:00,
2015-07-02 03:02:00,45.0,43.0,-100.00,SSE,154,1.0,2.0,94,-99.99,,,-99.99,,2015-07-02 08:02:00,
2015-07-02 03:23:00,45.0,43.0,-100.00,SSE,154,1.0,2.0,94,-99.99,,,-99.99,,2015-07-02 08:23:00,
2015-07-02 03:33:00,45.0,43.0,-100.00,SSE,154,1.0,2.0,94,-99.99,,,-99.99,,2015-07-02 08:33:00,
2015-07-02 03:43:00,45.0,43.0,-100.00,SSE,154,1.0,2.0,94,-99.99,,,-99.99,,2015-07-02 08:43:00,
2015-07-02 03:53:00,45.0,43.0,-100.00,SSE,154,1.0,2.0,94,-99.99,,,-99.99,,2015-07-02 08:53:00,
2015-07-02 04:02:00,45.0,44.0,-100.00,North,-9999,0.0,2.0,97,-99.99,,,-99.99,,2015-07-02 09:02:00,
2015-07-02 04:23:00,45.0,44.0,-100.00,North,-9999,0.0,2.0,97,-99.99,,,-99.99,,2015-07-02 09:23:00,
2015-07-02 04:33:00,45.0,44.0,-100.00,North,-9999,0.0,2.0,97,-99.99,,,-99.99,,2015-07-02 09:33:00,
2015-07-02 04:44:00,45.0,44.0,-100.00,North,-9999,0.0,2.0,97,-99.99,,,-99.99,,2015-07-02 09:44:00,
2015-07-02 04:53:00,45.0,44.0,-100.00,North,-9999,0.0,2.0,97,-99.99,,,-99.99,,2015-07-02 09:53:00,
2015-07-02 05:02:00,44.0,43.0,-100.00,WSW,239,1.0,2.0,98,-99.99,,,-99.99,,2015-07-02 10:02:00,
2015-07-02 05:24:00,44.0,43.0,-100.00,WSW,239,1.0,2.0,98,-99.99,,,-99.99,,2015-07-02 10:24:00,
2015-07-02 05:33:00,44.0,43.0,-100.00,WSW,239,1.0,2.0,98,-99.99,,,-99.99,,2015-07-02 10:33:00,
2015-07-02 05:43:00,44.0,43.0,-100.00,WSW,239,1.0,2.0,98,-99.99,,,-99.99,,2015-07-02 10:43:00,
2015-07-02 05:53:00,44.0,43.0,-100.00,WSW,239,1.0,2.0,98,-99.99,,,-99.99,,2015-07-02 10:53:00,
2015-07-02 06:02:00,46.0,45.0,-100.00,North,-9999,0.0,2.0,98,-99.99,,,-99.99,,2015-07-02 11:02:00,
2015-07-02 06:23:00,46.0,45.0,-100.00,North,-9999,0.0,2.0,98,-99.99,,,-99.99,,2015-07-02 11:23:00,
2015-07-02 06:34:00,46.0,45.0,-100.00,North,-9999,0.0,2.0,98,-99.99,,,-99.99,,2015-07-02 11:34:00,
2015-07-02 06:44:00,46.0,45.0,-100.00,North,-9999,0.0,2.0,98,-99.99,,,-99.99,,2015-07-02 11:44:00,
2015-07-02 06:54:00,46.0,45.0,-100.00,North,-9999,0.0,2.0,98,-99.99,,,-99.99,,2015-07-02 11:54:00,
2015-07-02 07:02:00,50.0,49.0,-100.00,SW,236,3.0,6.0,96,-99.99,,,-99.99,,2015-07-02 12:02:00,
2015-07-02 07:23:00,50.0,49.0,-100.00,SW,236,3.0,6.0,96,-99.99,,,-99.99,,2015-07-02 12:23:00,
2015-07-02 07:34:00,50.0,49.0,-100.00,SW,236,3.0,6.0,96,-99.99,,,-99.99,,2015-07-02 12:34:00,
2015-07-02 07:44:00,50.0,49.0,-100.00,SW,236,3.0,6.0,96,-99.99,,,-99.99,,2015-07-02 12:44:00,
2015-07-02 07:54:00,50.0,49.0,-100.00,SW,236,3.0,6.0,96,-99.99,,,-99.99,,2015-07-02 12:54:00,
2015-07-02 08:02:00,54.0,50.0,-100.00,WSW,237,3.0,8.0,85,-99.99,,,-99.99,,2015-07-02 13:02:00,
2015-07-02 08:26:00,54.0,50.0,-100.00,WSW,237,3.0,8.0,85,-99.99,,,-99.99,,2015-07-02 13:26:00,
2015-07-02 08:34:00,54.0,50.0,-100.00,WSW,237,3.0,8.0,85,-99.99,,,-99.99,,2015-07-02 13:34:00,
2015-07-02 08:44:00,54.0,50.0,-100.00,WSW,237,3.0,8.0,85,-99.99,,,-99.99,,2015-07-02 13:44:00,
2015-07-02 08:53:00,54.0,50.0,-100.00,WSW,237,3.0,8.0,85,-99.99,,,-99.99,,2015-07-02 13:53:00,
2015-07-02 09:02:00,62.0,51.0,-100.00,West,272,3.0,8.0,67,-99.99,,,-99.99,,2015-07-02 14:02:00,
2015-07-02 09:44:00,62.0,51.0,-100.00,West,272,3.0,8.0,67,-99.99,,,-99.99,,2015-07-02 14:44:00,
2015-07-02 09:53:00,62.0,51.0,-100.00,West,272,3.0,8.0,67,-99.99,,,-99.99,,2015-07-02 14:53:00,
2015-07-02 10:02:00,65.0,50.0,-100.00,SW,214,3.0,8.0,59,-99.99,,,-99.99,,2015-07-02 15:02:00,
2015-07-02 10:23:00,65.0,50.0,-100.00,SW,214,3.0,8.0,59,-99.99,,,-99.99,,2015-07-02 15:23:00,
2015-07-02 10:33:00,65.0,50.0,-100.00,SW,214,3.0,8.0,59,-99.99,,,-99.99,,2015-07-02 15:33:00,
2015-07-02 10:43:00,65.0,50.0,-100.00,SW,214,3.0,8.0,59,-99.99,,,-99.99,,2015-07-02 15:43:00,
2015-07-02 10:53:00,65.0,50.0,-100.00,SW,214,3.0,8.0,59,-99.99,,,-99.99,,2015-07-02 15:53:00,
2015-07-02 11:02:00,70.0,50.0,-100.00,SW,229,3.0,7.0,49,-99.99,,,-99.99,,2015-07-02 16:02:00,
2015-07-02 11:23:00,70.0,50.0,-100.00,SW,229,3.0,7.0,49,-99.99,,,-99.99,,2015-07-02 16:23:00,
2015-07-02 11:34:00,70.0,50.0,-100.00,SW,229,3.0,7.0,49,-99.99,,,-99.99,,2015-07-02 16:34:00,
2015-07-02 11:44:00,70.0,50.0,-100.00,SW,229,3.0,7.0,49,-99.99,,,-99.99,,2015-07-02 16:44:00,
2015-07-02 11:54:00,70.0,50.0,-100.00,SW,229,3.0,7.0,49,-99.99,,,-99.99,,2015-07-02 16:54:00,
2015-07-02 12:02:00,73.0,50.0,-100.00,WSW,241,3.0,7.0,44,-99.99,,,-99.99,,2015-07-02 17:02:00,
2015-07-02 12:24:00,73.0,50.0,-100.00,WSW,241,3.0,7.0,44,-99.99,,,-99.99,,2015-07-02 17:24:00,
2015-07-02 12:34:00,73.0,50.0,-100.00,WSW,241,3.0,7.0,44,-99.99,,,-99.99,,2015-07-02 17:34:00,
2015-07-02 12:44:00,73.0,50.0,-100.00,WSW,241,3.0,7.0,44,-99.99,,,-99.99,,2015-07-02 17:44:00,
2015-07-02 12:54:00,73.0,50.0,-100.00,WSW,241,3.0,7.0,44,-99.99,,,-99.99,,2015-07-02 17:54:00,
2015-07-02 13:02:00,75.0,51.0,-100.00,WSW,249,3.0,9.0,43,-99.99,,,-99.99,,2015-07-02 18:02:00,
2015-07-02 13:24:00,75.0,51.0,-100.00,WSW,249,3.0,9.0,43,-99.99,,,-99.99,,2015-07-02 18:24:00,
2015-07-02 13:34:00,75.0,51.0,-100.00,WSW,249,3.0,9.0,43,-99.99,,,-99.99,,2015-07-02 18:34:00,
2015-07-02 13:44:00,75.0,51.0,-100.00,WSW,249,3.0,9.0,43,-99.99,,,-99.99,,2015-07-02 18:44:00,
2015-07-02 13:54:00,75.0,51.0,-100.00,WSW,249,3.0,9.0,43,-99.99,,,-99.99,,2015-07-02 18:54:00,
2015-07-02 14:02:00,77.0,53.0,-100.00,South,188,3.0,9.0,43,-99.99,,,-99.99,,2015-07-02 19:02:00,
2015-07-02 14:24:00,77.0,53.0,-100.00,South,188,3.0,9.0,43,-99.99,,,-99.99,,2015-07-02 19:24:00,
2015-07-02 14:34:00,77.0,53.0,-100.00,South,188,3.0,9.0,43,-99.99,,,-99.99,,2015-07-02 19:34:00,
2015-07-02 14:44:00,77.0,53.0,-100.00,South,188,3.0,9.0,43,-99.99,,,-99.99,,2015-07-02 19:44:00,
2015-07-02 14:54:00,77.0,53.0,-100.00,South,188,3.0,9.0,43,-99.99,,,-99.99,,2015-07-02 19:54:00,
2015-07-02 15:02:00,78.0,54.0,-100.00,WSW,258,4.0,9.0,44,-99.99,,,-99.99,,2015-07-02 20:02:00,
2015-07-02 15:23:00,78.0,54.0,-100.00,WSW,258,4.0,9.0,44,-99.99,,,-99.99,,2015-07-02 20:23:00,
2015-07-02 15:34:00,78.0,54.0,-100.00,WSW,258,4.0,9.0,44,-99.99,,,-99.99,,2015-07-02 20:34:00,
2015-07-02 15:44:00,78.0,54.0,-100.00,WSW,258,4.0,9.0,44,-99.99,,,-99.99,,2015-07-02 20:44:00,
2015-07-02 15:54:00,78.0,54.0,-100.00,WSW,258,4.0,9.0,44,-99.99,,,-99.99,,2015-07-02 20:54:00,
2015-07-02 16:02:00,78.0,54.0,-100.00,WSW,252,3.0,7.0,43,-99.99,,,-99.99,,2015-07-02 21:02:00,
2015-07-02 16:23:00,78.0,54.0,-100.00,WSW,252,3.0,7.0,43,-99.99,,,-99.99,,2015-07-02 21:23:00,
2015-07-02 16:33:00,78.0,54.0,-100.00,WSW,252,3.0,-999.0,43,-99.99,,,-99.99,,2015-07-02 21:33:00,
2015-07-02 16:43:00,78.0,54.0,-100.00,WSW,252,3.0,7.0,43,-99.99,,,-99.99,,2015-07-02 21:43:00,
2015-07-02 16:53:00,78.0,54.0,-100.00,WSW,252,3.0,7.0,43,-99.99,,,-99.99,,2015-07-02 21:53:00,